createdAt,value
2018-04-07T00:04:03.152Z,13.00
2018-04-07T00:09:05.397Z,10.40
2018-04-07T00:14:06.921Z,9.50
2018-04-07T00:19:08.625Z,10.70
2018-04-07T00:24:10.144Z,13.20
2018-04-07T00:29:11.626Z,14.50
2018-04-07T00:34:13.224Z,15.70
2018-04-07T00:39:14.783Z,12.17
2018-04-07T00:44:16.260Z,15.03
2018-04-07T00:49:17.788Z,13.47
2018-04-07T00:54:20.062Z,14.33
2018-04-07T00:59:21.772Z,14.73
2018-04-07T01:04:23.289Z,14.50
2018-04-07T01:09:24.798Z,10.80
2018-04-07T01:14:26.347Z,17.43
2018-04-07T01:19:28.600Z,14.47
2018-04-07T01:24:30.124Z,14.83
2018-04-07T01:29:31.642Z,11.97
2018-04-07T01:34:33.189Z,10.30
2018-04-07T01:39:34.726Z,15.60
2018-04-07T01:44:36.225Z,13.73
2018-04-07T01:49:37.818Z,11.80
2018-04-07T01:54:39.348Z,11.10
2018-04-07T01:59:40.884Z,12.30
2018-04-07T02:04:42.449Z,11.20
2018-04-07T02:09:43.943Z,15.27
2018-04-07T02:14:45.477Z,13.37
2018-04-07T02:19:47.717Z,11.37
2018-04-07T02:24:49.321Z,9.77
2018-04-07T02:29:51.587Z,12.37
2018-04-07T02:34:53.144Z,18.40
2018-04-07T02:39:54.667Z,15.97
2018-04-07T02:44:56.197Z,17.37
2018-04-07T02:49:57.722Z,13.10
2018-04-07T02:54:59.266Z,11.03
2018-04-07T03:00:00.761Z,19.00
2018-04-07T03:05:02.285Z,17.13
2018-04-07T03:10:05.167Z,15.30
2018-04-07T03:15:06.679Z,14.13
2018-04-07T03:20:08.225Z,12.70
2018-04-07T03:25:10.713Z,16.47
2018-04-07T03:30:12.994Z,13.40
2018-04-07T03:35:15.309Z,18.60
2018-04-07T03:40:17.541Z,13.40
2018-04-07T03:45:19.037Z,11.77
2018-04-07T03:50:21.383Z,16.97
2018-04-07T03:55:22.929Z,17.23
2018-04-07T04:00:24.498Z,14.60
2018-04-07T04:05:25.994Z,13.90
2018-04-07T04:10:27.506Z,14.70
2018-04-07T04:15:29.078Z,17.50
2018-04-07T04:20:30.712Z,17.30
2018-04-07T04:25:32.238Z,13.63
2018-04-07T04:30:33.745Z,14.10
2018-04-07T04:35:35.249Z,14.80
2018-04-07T04:40:36.820Z,17.80
2018-04-07T04:45:45.301Z,16.27
2018-04-07T04:50:46.819Z,13.00
2018-04-07T04:55:48.329Z,21.53
2018-04-07T05:00:49.832Z,14.40
2018-04-07T05:05:52.094Z,14.57
2018-04-07T05:10:53.631Z,10.63
2018-04-07T05:15:55.183Z,11.00
2018-04-07T05:20:56.725Z,17.80
2018-04-07T05:25:58.977Z,10.67
2018-04-07T05:31:00.493Z,15.53
2018-04-07T05:36:01.994Z,13.00
2018-04-07T05:41:03.570Z,14.97
2018-04-07T05:46:05.055Z,13.47
2018-04-07T05:51:06.607Z,12.77
2018-04-07T05:56:08.113Z,12.80
2018-04-07T06:01:09.652Z,13.40
2018-04-07T06:06:11.184Z,13.47
2018-04-07T06:11:12.729Z,12.20
2018-04-07T06:16:14.242Z,13.87
2018-04-07T06:21:15.897Z,12.83
2018-04-07T06:26:17.451Z,8.57
2018-04-07T06:31:18.956Z,12.63
2018-04-07T06:36:20.537Z,13.97
2018-04-07T06:41:22.140Z,17.50
2018-04-07T06:46:23.649Z,16.47
2018-04-07T06:51:25.117Z,14.70
2018-04-07T06:56:26.633Z,15.33
2018-04-07T07:01:28.144Z,13.67
2018-04-07T07:06:29.719Z,14.87
2018-04-07T07:11:31.291Z,13.83
2018-04-07T07:16:32.853Z,16.43
2018-04-07T07:21:34.352Z,16.57
2018-04-07T07:26:35.979Z,14.80
2018-04-07T07:31:37.614Z,17.00
2018-04-07T07:36:39.121Z,14.50
2018-04-07T07:41:40.644Z,22.40
2018-04-07T07:46:42.206Z,15.13
2018-04-07T07:51:43.728Z,14.90
2018-04-07T07:56:45.261Z,14.93
2018-04-07T08:01:46.837Z,17.93
2018-04-07T08:06:48.582Z,14.17
2018-04-07T08:11:50.928Z,16.20
2018-04-07T08:16:52.428Z,20.43
2018-04-07T08:21:54.761Z,16.83
2018-04-07T08:26:56.370Z,19.70
2018-04-07T08:32:05.086Z,16.17
2018-04-07T08:37:06.577Z,17.00
2018-04-07T08:42:08.130Z,17.77
2018-04-07T08:47:09.642Z,18.80
2018-04-07T08:52:11.153Z,21.37
2018-04-07T08:57:12.760Z,18.97
2018-04-07T09:02:15.016Z,19.03
2018-04-07T09:07:16.537Z,19.97
2018-04-07T09:12:18.097Z,21.57
2018-04-07T09:17:19.595Z,21.10
2018-04-07T09:22:21.121Z,22.13
2018-04-07T09:27:23.368Z,18.23
2018-04-07T09:32:24.925Z,28.17
2018-04-07T09:37:26.479Z,18.90
2018-04-07T09:42:28.035Z,18.33
2018-04-07T09:47:29.634Z,19.60
2018-04-07T09:52:31.125Z,20.17
2018-04-07T09:57:32.656Z,24.47
2018-04-07T10:02:35.047Z,21.10
2018-04-07T10:07:36.591Z,22.70
2018-04-07T10:12:38.085Z,26.80
2018-04-07T10:17:39.632Z,21.83
2018-04-07T10:22:41.215Z,22.37
2018-04-07T10:27:42.813Z,25.43
2018-04-07T10:32:44.324Z,25.97
2018-04-07T10:37:46.078Z,23.30
2018-04-07T10:42:48.361Z,24.70
2018-04-07T10:47:50.688Z,22.87
2018-04-07T10:52:52.227Z,25.43
2018-04-07T10:57:53.772Z,24.50
2018-04-07T11:02:55.319Z,25.83
2018-04-07T11:07:56.859Z,23.87
2018-04-07T11:12:58.418Z,21.00
2018-04-07T11:18:00.681Z,23.77
2018-04-07T11:23:02.987Z,19.37
2018-04-07T11:28:04.449Z,26.23
2018-04-07T11:33:06.008Z,32.10
2018-04-07T11:38:07.600Z,21.17
2018-04-07T11:43:09.242Z,22.27
2018-04-07T11:48:11.507Z,24.57
2018-04-07T11:53:13.063Z,21.00
2018-04-07T11:58:14.589Z,22.33
2018-04-07T12:03:16.140Z,25.80
2018-04-07T12:08:17.884Z,30.50
2018-04-07T12:13:19.419Z,19.73
2018-04-07T12:18:20.947Z,23.40
2018-04-07T12:23:22.582Z,25.07
2018-04-07T12:28:24.134Z,23.23
2018-04-07T12:33:25.687Z,24.37
2018-04-07T12:38:27.205Z,18.80
2018-04-07T12:43:29.536Z,19.30
2018-04-07T12:48:31.057Z,23.10
2018-04-07T12:53:33.350Z,17.60
2018-04-07T12:58:35.798Z,22.37
2018-04-07T13:03:37.338Z,19.77
2018-04-07T13:08:38.921Z,18.00
2018-04-07T13:13:40.497Z,14.70
2018-04-07T13:18:42.041Z,20.17
2018-04-07T13:23:43.652Z,17.40
2018-04-07T13:28:45.177Z,20.53
2018-04-07T13:33:46.789Z,19.33
2018-04-07T13:38:48.389Z,17.40
2018-04-07T13:43:50.673Z,15.43
2018-04-07T13:48:53.514Z,18.40
2018-04-07T13:53:55.101Z,17.33
2018-04-07T13:58:56.809Z,16.97
2018-04-07T14:03:58.362Z,17.73
2018-04-07T14:08:59.900Z,16.10
2018-04-07T14:14:01.455Z,24.20
2018-04-07T14:19:03.000Z,14.73
2018-04-07T14:24:04.543Z,13.13
2018-04-07T14:29:06.857Z,15.53
2018-04-07T14:34:08.444Z,15.13
2018-04-07T14:39:10.022Z,14.37
2018-04-07T14:44:11.579Z,13.50
2018-04-07T14:49:13.083Z,12.73
2018-04-07T14:54:14.623Z,13.93
2018-04-07T14:59:16.177Z,9.20
2018-04-07T15:04:17.755Z,14.03
2018-04-07T15:09:19.235Z,11.93
2018-04-07T15:14:20.694Z,11.20
2018-04-07T15:19:22.203Z,13.63
2018-04-07T15:24:24.505Z,15.53
2018-04-07T15:29:26.030Z,8.47
2018-04-07T15:34:27.472Z,10.33
2018-04-07T15:39:29.125Z,11.20
2018-04-07T15:44:30.668Z,12.87
2018-04-07T15:49:33.008Z,12.30
2018-04-07T15:54:34.616Z,10.03
2018-04-07T15:59:36.919Z,9.17
2018-04-07T16:04:38.414Z,13.97
2018-04-07T16:09:39.991Z,11.50
2018-04-07T16:14:41.575Z,9.90
2018-04-07T16:19:43.209Z,6.37
2018-04-07T16:24:44.758Z,6.73
2018-04-07T16:29:46.292Z,15.40
2018-04-07T16:34:47.879Z,11.67
2018-04-07T16:39:50.140Z,7.93
2018-04-07T16:44:51.731Z,10.47
2018-04-07T16:49:54.004Z,7.67
2018-04-07T16:54:55.446Z,8.47
2018-04-07T16:59:57.003Z,10.00
2018-04-07T17:04:58.575Z,6.67
2018-04-07T17:10:00.289Z,8.50
2018-04-07T17:15:02.608Z,12.10
2018-04-07T17:20:04.082Z,11.20
2018-04-07T17:25:05.716Z,7.90
2018-04-07T17:30:08.008Z,13.20
2018-04-07T17:35:10.293Z,13.03
2018-04-07T17:40:12.554Z,7.87
2018-04-07T17:45:14.220Z,10.30
2018-04-07T17:50:15.785Z,7.70
2018-04-07T17:55:17.271Z,7.50
2018-04-07T18:00:18.928Z,8.10
2018-04-07T18:05:20.483Z,9.00
2018-04-07T18:10:22.087Z,8.00
2018-04-07T18:15:24.374Z,7.53
2018-04-07T18:20:26.684Z,12.03
2018-04-07T18:25:28.255Z,7.40
2018-04-07T18:30:29.787Z,10.07
2018-04-07T18:35:32.131Z,23.13
2018-04-07T18:40:33.684Z,16.47
2018-04-07T18:45:35.223Z,10.10
2018-04-07T18:50:36.780Z,10.73
2018-04-07T18:55:39.128Z,9.50
2018-04-07T19:00:40.700Z,9.73
2018-04-07T19:05:42.244Z,15.80
2018-04-07T19:10:43.840Z,11.60
2018-04-07T19:15:52.514Z,11.77
2018-04-07T19:20:54.926Z,12.63
2018-04-07T19:25:56.519Z,10.50
2018-04-07T19:30:57.988Z,10.30
2018-04-07T19:35:59.616Z,12.33
2018-04-07T19:41:01.181Z,17.23
2018-04-07T19:46:02.772Z,16.40
2018-04-07T19:51:04.348Z,13.00
2018-04-07T19:56:05.883Z,11.83
2018-04-07T20:01:08.166Z,19.43
2018-04-07T20:06:10.466Z,10.17
2018-04-07T20:11:12.136Z,15.40
2018-04-07T20:16:13.736Z,16.83
2018-04-07T20:21:15.333Z,12.97
2018-04-07T20:26:16.921Z,18.73
2018-04-07T20:31:19.237Z,18.43
2018-04-07T20:36:20.788Z,12.90
2018-04-07T20:41:22.400Z,17.00
2018-04-07T20:46:24.133Z,16.07
2018-04-07T20:51:25.682Z,23.70
2018-04-07T20:56:28.008Z,17.13
2018-04-07T21:01:29.638Z,17.13
2018-04-07T21:06:32.003Z,14.03
2018-04-07T21:11:33.573Z,16.33
2018-04-07T21:16:35.132Z,16.47
2018-04-07T21:21:36.742Z,14.27
2018-04-07T21:26:39.088Z,15.90
2018-04-07T21:31:40.640Z,15.43
2018-04-07T21:36:42.230Z,19.53
2018-04-07T21:41:43.834Z,18.30
2018-04-07T21:46:46.124Z,17.83
2018-04-07T21:51:47.678Z,11.97
2018-04-07T21:56:49.965Z,16.83
2018-04-07T22:01:52.297Z,17.60
2018-04-07T22:06:53.813Z,17.87
2018-04-07T22:11:56.110Z,23.23
2018-04-07T22:16:58.431Z,16.73
2018-04-07T22:22:00.018Z,16.27
2018-04-07T22:27:01.570Z,12.63
2018-04-07T22:32:03.132Z,18.93
2018-04-07T22:37:04.729Z,19.87
2018-04-07T22:42:06.331Z,19.17
2018-04-07T22:47:08.614Z,16.50
2018-04-07T22:52:10.899Z,13.80
2018-04-07T22:57:13.242Z,19.53
2018-04-07T23:02:14.832Z,13.47
2018-04-07T23:07:16.374Z,18.33
2018-04-07T23:12:17.943Z,20.63
2018-04-07T23:17:19.706Z,14.90
2018-04-07T23:22:21.494Z,15.00
2018-04-07T23:27:23.346Z,18.70
2018-04-07T23:32:24.882Z,17.33
2018-04-07T23:37:27.177Z,18.00
2018-04-07T23:42:29.472Z,14.30
2018-04-07T23:47:32.004Z,14.17
2018-04-07T23:52:40.621Z,16.40
2018-04-07T23:57:42.203Z,18.83
